sensor_id;sensor_type;location;lat;lon;timestamp;P1;durP1;ratioP1;P2;durP2;ratioP2
12048;SDS011;6085;49.452;8.502;2023-06-05T00:01:45;2.25;;;2.10;;
12048;SDS011;6085;49.452;8.502;2023-06-05T00:05:47;2.75;;;2.13;;
12048;SDS011;6085;49.452;8.502;2023-06-05T00:09:49;5.90;;;2.10;;
12048;SDS011;6085;49.452;8.502;2023-06-05T00:13:52;2.30;;;2.10;;
12048;SDS011;6085;49.452;8.502;2023-06-05T00:17:54;2.25;;;2.05;;
12048;SDS011;6085;49.452;8.502;2023-06-05T00:21:56;3.38;;;2.45;;
12048;SDS011;6085;49.452;8.502;2023-06-05T00:25:58;2.10;;;1.90;;
12048;SDS011;6085;49.452;8.502;2023-06-05T00:30:01;1.83;;;1.73;;
12048;SDS011;6085;49.452;8.502;2023-06-05T00:34:04;2.70;;;1.90;;
12048;SDS011;6085;49.452;8.502;2023-06-05T00:38:06;2.10;;;1.92;;
12048;SDS011;6085;49.452;8.502;2023-06-05T00:42:08;3.47;;;1.90;;
12048;SDS011;6085;49.452;8.502;2023-06-05T00:46:11;1.55;;;1.45;;
12048;SDS011;6085;49.452;8.502;2023-06-05T00:50:14;4.22;;;1.73;;
12048;SDS011;6085;49.452;8.502;2023-06-05T00:54:17;1.35;;;1.25;;
12048;SDS011;6085;49.452;8.502;2023-06-05T00:58:21;2.53;;;1.70;;
12048;SDS011;6085;49.452;8.502;2023-06-05T01:02:24;1.92;;;1.73;;
12048;SDS011;6085;49.452;8.502;2023-06-05T01:06:27;1.70;;;1.60;;
12048;SDS011;6085;49.452;8.502;2023-06-05T01:10:31;1.85;;;1.70;;
12048;SDS011;6085;49.452;8.502;2023-06-05T01:14:34;2.13;;;1.60;;
12048;SDS011;6085;49.452;8.502;2023-06-05T01:18:41;3.17;;;1.60;;
12048;SDS011;6085;49.452;8.502;2023-06-05T01:22:48;1.60;;;1.50;;
12048;SDS011;6085;49.452;8.502;2023-06-05T01:26:53;1.50;;;1.40;;
12048;SDS011;6085;49.452;8.502;2023-06-05T01:31:08;1.73;;;1.40;;
12048;SDS011;6085;49.452;8.502;2023-06-05T01:35:14;5.47;;;1.73;;
12048;SDS011;6085;49.452;8.502;2023-06-05T01:39:18;2.38;;;1.60;;
12048;SDS011;6085;49.452;8.502;2023-06-05T01:43:20;2.20;;;1.70;;
12048;SDS011;6085;49.452;8.502;2023-06-05T01:47:22;2.13;;;1.60;;
12048;SDS011;6085;49.452;8.502;2023-06-05T01:51:25;2.58;;;1.70;;
12048;SDS011;6085;49.452;8.502;2023-06-05T01:55:28;2.33;;;1.63;;
12048;SDS011;6085;49.452;8.502;2023-06-05T01:59:33;2.60;;;1.83;;
12048;SDS011;6085;49.452;8.502;2023-06-05T02:03:35;1.50;;;1.40;;
12048;SDS011;6085;49.452;8.502;2023-06-05T02:07:38;1.80;;;1.70;;
12048;SDS011;6085;49.452;8.502;2023-06-05T02:11:42;1.88;;;1.50;;
12048;SDS011;6085;49.452;8.502;2023-06-05T02:15:45;1.73;;;1.55;;
12048;SDS011;6085;49.452;8.502;2023-06-05T02:19:47;2.88;;;1.60;;
12048;SDS011;6085;49.452;8.502;2023-06-05T02:23:49;1.92;;;1.77;;
12048;SDS011;6085;49.452;8.502;2023-06-05T02:27:52;2.58;;;1.65;;
12048;SDS011;6085;49.452;8.502;2023-06-05T02:31:54;1.63;;;1.50;;
12048;SDS011;6085;49.452;8.502;2023-06-05T02:35:56;1.60;;;1.48;;
12048;SDS011;6085;49.452;8.502;2023-06-05T02:39:59;3.25;;;1.60;;
12048;SDS011;6085;49.452;8.502;2023-06-05T02:44:02;2.55;;;1.80;;
12048;SDS011;6085;49.452;8.502;2023-06-05T02:48:04;1.95;;;1.80;;
12048;SDS011;6085;49.452;8.502;2023-06-05T02:52:06;1.80;;;1.70;;
12048;SDS011;6085;49.452;8.502;2023-06-05T02:56:08;2.45;;;1.80;;
12048;SDS011;6085;49.452;8.502;2023-06-05T03:00:12;2.33;;;1.67;;
12048;SDS011;6085;49.452;8.502;2023-06-05T03:04:16;2.78;;;1.73;;
12048;SDS011;6085;49.452;8.502;2023-06-05T03:08:21;1.55;;;1.45;;
12048;SDS011;6085;49.452;8.502;2023-06-05T03:12:22;1.85;;;1.73;;
12048;SDS011;6085;49.452;8.502;2023-06-05T03:16:26;2.83;;;1.98;;
12048;SDS011;6085;49.452;8.502;2023-06-05T03:20:33;1.73;;;1.52;;
12048;SDS011;6085;49.452;8.502;2023-06-05T03:24:36;1.80;;;1.70;;
12048;SDS011;6085;49.452;8.502;2023-06-05T03:28:38;1.70;;;1.60;;
12048;SDS011;6085;49.452;8.502;2023-06-05T03:32:41;3.03;;;1.70;;
12048;SDS011;6085;49.452;8.502;2023-06-05T03:36:43;2.50;;;1.90;;
12048;SDS011;6085;49.452;8.502;2023-06-05T03:40:45;2.45;;;1.98;;
12048;SDS011;6085;49.452;8.502;2023-06-05T03:44:47;1.85;;;1.75;;
12048;SDS011;6085;49.452;8.502;2023-06-05T03:48:51;2.30;;;1.90;;
12048;SDS011;6085;49.452;8.502;2023-06-05T03:53:00;4.10;;;1.70;;
12048;SDS011;6085;49.452;8.502;2023-06-05T03:57:03;2.35;;;2.15;;
12048;SDS011;6085;49.452;8.502;2023-06-05T04:01:12;1.95;;;1.70;;
12048;SDS011;6085;49.452;8.502;2023-06-05T04:05:16;2.75;;;1.98;;
12048;SDS011;6085;49.452;8.502;2023-06-05T04:09:18;4.38;;;2.00;;
12048;SDS011;6085;49.452;8.502;2023-06-05T04:13:19;1.50;;;1.40;;
12048;SDS011;6085;49.452;8.502;2023-06-05T04:17:22;2.17;;;1.60;;
12048;SDS011;6085;49.452;8.502;2023-06-05T04:21:26;2.30;;;1.70;;
12048;SDS011;6085;49.452;8.502;2023-06-05T04:25:28;1.58;;;1.48;;
12048;SDS011;6085;49.452;8.502;2023-06-05T04:29:30;3.50;;;1.77;;
12048;SDS011;6085;49.452;8.502;2023-06-05T04:33:34;1.60;;;1.50;;
12048;SDS011;6085;49.452;8.502;2023-06-05T04:37:37;3.40;;;1.65;;
12048;SDS011;6085;49.452;8.502;2023-06-05T04:41:40;2.00;;;1.52;;
12048;SDS011;6085;49.452;8.502;2023-06-05T04:45:45;1.70;;;1.60;;
12048;SDS011;6085;49.452;8.502;2023-06-05T04:49:47;2.42;;;1.58;;
12048;SDS011;6085;49.452;8.502;2023-06-05T04:53:53;1.40;;;1.30;;
12048;SDS011;6085;49.452;8.502;2023-06-05T04:57:55;2.15;;;1.40;;
12048;SDS011;6085;49.452;8.502;2023-06-05T05:02:01;1.98;;;1.50;;
12048;SDS011;6085;49.452;8.502;2023-06-05T05:06:03;1.60;;;1.50;;
12048;SDS011;6085;49.452;8.502;2023-06-05T05:10:07;1.60;;;1.50;;
12048;SDS011;6085;49.452;8.502;2023-06-05T05:14:10;1.77;;;1.50;;
12048;SDS011;6085;49.452;8.502;2023-06-05T05:18:12;1.50;;;1.40;;
12048;SDS011;6085;49.452;8.502;2023-06-05T05:22:13;1.67;;;1.52;;
12048;SDS011;6085;49.452;8.502;2023-06-05T05:26:17;2.88;;;1.83;;
12048;SDS011;6085;49.452;8.502;2023-06-05T05:30:19;1.90;;;1.80;;
12048;SDS011;6085;49.452;8.502;2023-06-05T05:34:21;2.80;;;1.52;;
12048;SDS011;6085;49.452;8.502;2023-06-05T05:38:23;4.20;;;1.88;;
12048;SDS011;6085;49.452;8.502;2023-06-05T05:42:27;2.33;;;1.95;;
12048;SDS011;6085;49.452;8.502;2023-06-05T05:46:28;4.85;;;2.03;;
12048;SDS011;6085;49.452;8.502;2023-06-05T05:50:30;2.63;;;2.20;;
12048;SDS011;6085;49.452;8.502;2023-06-05T05:54:32;2.30;;;2.10;;
12048;SDS011;6085;49.452;8.502;2023-06-05T05:58:36;1.60;;;1.50;;
12048;SDS011;6085;49.452;8.502;2023-06-05T06:02:38;1.77;;;1.67;;
12048;SDS011;6085;49.452;8.502;2023-06-05T06:06:40;2.28;;;1.92;;
12048;SDS011;6085;49.452;8.502;2023-06-05T06:10:42;2.25;;;1.70;;
12048;SDS011;6085;49.452;8.502;2023-06-05T06:14:47;3.05;;;1.67;;
12048;SDS011;6085;49.452;8.502;2023-06-05T06:18:49;2.13;;;1.92;;
12048;SDS011;6085;49.452;8.502;2023-06-05T06:22:52;3.20;;;1.65;;
12048;SDS011;6085;49.452;8.502;2023-06-05T06:26:53;1.48;;;1.38;;
12048;SDS011;6085;49.452;8.502;2023-06-05T06:30:57;1.38;;;1.27;;
12048;SDS011;6085;49.452;8.502;2023-06-05T06:34:58;3.22;;;1.73;;
12048;SDS011;6085;49.452;8.502;2023-06-05T06:39:00;1.60;;;1.45;;
12048;SDS011;6085;49.452;8.502;2023-06-05T06:43:04;2.28;;;1.60;;
12048;SDS011;6085;49.452;8.502;2023-06-05T06:47:07;3.65;;;1.60;;
12048;SDS011;6085;49.452;8.502;2023-06-05T06:51:09;2.20;;;1.60;;
12048;SDS011;6085;49.452;8.502;2023-06-05T06:55:11;2.97;;;1.48;;
12048;SDS011;6085;49.452;8.502;2023-06-05T06:59:13;1.55;;;1.45;;
12048;SDS011;6085;49.452;8.502;2023-06-05T07:03:17;2.17;;;1.50;;
12048;SDS011;6085;49.452;8.502;2023-06-05T07:07:20;2.33;;;1.70;;
12048;SDS011;6085;49.452;8.502;2023-06-05T07:11:25;2.10;;;1.42;;
12048;SDS011;6085;49.452;8.502;2023-06-05T07:15:27;2.55;;;1.80;;
12048;SDS011;6085;49.452;8.502;2023-06-05T07:19:30;1.60;;;1.50;;
12048;SDS011;6085;49.452;8.502;2023-06-05T07:23:33;2.03;;;1.65;;
12048;SDS011;6085;49.452;8.502;2023-06-05T07:27:35;4.00;;;1.50;;
12048;SDS011;6085;49.452;8.502;2023-06-05T07:31:37;1.75;;;1.60;;
12048;SDS011;6085;49.452;8.502;2023-06-05T07:35:40;2.17;;;1.63;;
12048;SDS011;6085;49.452;8.502;2023-06-05T07:39:45;1.45;;;1.35;;
12048;SDS011;6085;49.452;8.502;2023-06-05T07:43:50;2.05;;;1.55;;
12048;SDS011;6085;49.452;8.502;2023-06-05T07:47:52;1.70;;;1.60;;
12048;SDS011;6085;49.452;8.502;2023-06-05T07:51:55;3.70;;;1.90;;
12048;SDS011;6085;49.452;8.502;2023-06-05T07:55:57;1.90;;;1.67;;
12048;SDS011;6085;49.452;8.502;2023-06-05T07:59:59;2.22;;;1.77;;
12048;SDS011;6085;49.452;8.502;2023-06-05T08:04:06;3.17;;;1.92;;
12048;SDS011;6085;49.452;8.502;2023-06-05T08:08:09;2.28;;;1.52;;
12048;SDS011;6085;49.452;8.502;2023-06-05T08:12:11;3.53;;;1.80;;
12048;SDS011;6085;49.452;8.502;2023-06-05T08:16:13;2.10;;;1.70;;
12048;SDS011;6085;49.452;8.502;2023-06-05T08:20:15;2.13;;;1.90;;
12048;SDS011;6085;49.452;8.502;2023-06-05T08:24:19;1.70;;;1.60;;
12048;SDS011;6085;49.452;8.502;2023-06-05T08:28:21;2.03;;;1.67;;
12048;SDS011;6085;49.452;8.502;2023-06-05T08:32:22;1.80;;;1.70;;
12048;SDS011;6085;49.452;8.502;2023-06-05T08:36:25;3.20;;;1.90;;
12048;SDS011;6085;49.452;8.502;2023-06-05T08:40:28;2.78;;;1.90;;
12048;SDS011;6085;49.452;8.502;2023-06-05T08:44:31;2.97;;;1.70;;
12048;SDS011;6085;49.452;8.502;2023-06-05T08:48:36;3.78;;;2.05;;
12048;SDS011;6085;49.452;8.502;2023-06-05T08:52:42;2.67;;;1.95;;
12048;SDS011;6085;49.452;8.502;2023-06-05T08:56:47;2.78;;;2.50;;
12048;SDS011;6085;49.452;8.502;2023-06-05T09:00:50;3.25;;;2.20;;
12048;SDS011;6085;49.452;8.502;2023-06-05T09:04:53;2.10;;;1.90;;
12048;SDS011;6085;49.452;8.502;2023-06-05T09:08:57;4.35;;;2.30;;
12048;SDS011;6085;49.452;8.502;2023-06-05T09:13:02;2.05;;;1.80;;
12048;SDS011;6085;49.452;8.502;2023-06-05T09:17:05;2.45;;;1.98;;
12048;SDS011;6085;49.452;8.502;2023-06-05T09:21:14;2.67;;;2.47;;
12048;SDS011;6085;49.452;8.502;2023-06-05T09:25:16;2.80;;;2.00;;
12048;SDS011;6085;49.452;8.502;2023-06-05T09:29:27;2.05;;;1.95;;
12048;SDS011;6085;49.452;8.502;2023-06-05T09:33:30;2.80;;;2.60;;
12048;SDS011;6085;49.452;8.502;2023-06-05T09:37:34;2.15;;;2.03;;
12048;SDS011;6085;49.452;8.502;2023-06-05T09:41:38;2.20;;;2.10;;
12048;SDS011;6085;49.452;8.502;2023-06-05T09:45:45;2.83;;;2.10;;
12048;SDS011;6085;49.452;8.502;2023-06-05T09:49:47;3.17;;;2.15;;
12048;SDS011;6085;49.452;8.502;2023-06-05T09:53:50;4.30;;;2.20;;
12048;SDS011;6085;49.452;8.502;2023-06-05T09:57:52;5.28;;;2.15;;
12048;SDS011;6085;49.452;8.502;2023-06-05T10:01:59;2.10;;;2.00;;
12048;SDS011;6085;49.452;8.502;2023-06-05T10:06:04;2.63;;;2.10;;
12048;SDS011;6085;49.452;8.502;2023-06-05T10:10:08;4.38;;;2.40;;
12048;SDS011;6085;49.452;8.502;2023-06-05T10:14:11;5.05;;;2.42;;
12048;SDS011;6085;49.452;8.502;2023-06-05T10:18:16;3.75;;;2.30;;
12048;SDS011;6085;49.452;8.502;2023-06-05T10:22:18;3.25;;;2.50;;
12048;SDS011;6085;49.452;8.502;2023-06-05T10:26:22;4.28;;;2.22;;
12048;SDS011;6085;49.452;8.502;2023-06-05T10:31:02;3.47;;;2.30;;
12048;SDS011;6085;49.452;8.502;2023-06-05T10:35:22;2.85;;;2.65;;
12048;SDS011;6085;49.452;8.502;2023-06-05T10:39:34;2.75;;;2.13;;
12048;SDS011;6085;49.452;8.502;2023-06-05T10:43:45;2.40;;;2.20;;
12048;SDS011;6085;49.452;8.502;2023-06-05T10:47:48;5.32;;;2.60;;
12048;SDS011;6085;49.452;8.502;2023-06-05T10:51:52;5.40;;;2.45;;
12048;SDS011;6085;49.452;8.502;2023-06-05T10:55:59;2.55;;;2.22;;
12048;SDS011;6085;49.452;8.502;2023-06-05T11:00:07;2.97;;;2.78;;
12048;SDS011;6085;49.452;8.502;2023-06-05T11:04:11;2.50;;;2.30;;
12048;SDS011;6085;49.452;8.502;2023-06-05T11:08:15;2.60;;;2.40;;
12048;SDS011;6085;49.452;8.502;2023-06-05T11:12:20;3.30;;;2.28;;
12048;SDS011;6085;49.452;8.502;2023-06-05T11:16:25;2.58;;;2.38;;
12048;SDS011;6085;49.452;8.502;2023-06-05T11:29:28;2.50;;;2.22;;
12048;SDS011;6085;49.452;8.502;2023-06-05T11:33:30;3.42;;;2.20;;
12048;SDS011;6085;49.452;8.502;2023-06-05T11:37:32;2.92;;;2.40;;
12048;SDS011;6085;49.452;8.502;2023-06-05T11:41:37;2.58;;;2.33;;
12048;SDS011;6085;49.452;8.502;2023-06-05T11:45:48;2.63;;;2.42;;
12048;SDS011;6085;49.452;8.502;2023-06-05T11:49:51;3.13;;;2.10;;
12048;SDS011;6085;49.452;8.502;2023-06-05T11:53:53;3.40;;;2.45;;
12048;SDS011;6085;49.452;8.502;2023-06-05T11:57:59;4.10;;;2.13;;
12048;SDS011;6085;49.452;8.502;2023-06-05T12:02:03;18.58;;;3.95;;
12048;SDS011;6085;49.452;8.502;2023-06-05T12:06:06;2.10;;;2.00;;
12048;SDS011;6085;49.452;8.502;2023-06-05T12:10:08;3.92;;;2.60;;
12048;SDS011;6085;49.452;8.502;2023-06-05T12:14:12;3.30;;;2.50;;
12048;SDS011;6085;49.452;8.502;2023-06-05T12:18:30;3.30;;;2.33;;
12048;SDS011;6085;49.452;8.502;2023-06-05T12:22:33;2.28;;;2.08;;
12048;SDS011;6085;49.452;8.502;2023-06-05T12:26:48;2.80;;;2.22;;
12048;SDS011;6085;49.452;8.502;2023-06-05T12:30:56;2.80;;;2.38;;
12048;SDS011;6085;49.452;8.502;2023-06-05T12:34:58;3.25;;;2.30;;
12048;SDS011;6085;49.452;8.502;2023-06-05T12:39:03;3.30;;;2.28;;
12048;SDS011;6085;49.452;8.502;2023-06-05T12:43:15;3.05;;;2.40;;
12048;SDS011;6085;49.452;8.502;2023-06-05T12:47:19;2.50;;;2.30;;
12048;SDS011;6085;49.452;8.502;2023-06-05T12:51:21;2.97;;;2.40;;
12048;SDS011;6085;49.452;8.502;2023-06-05T12:55:23;2.15;;;2.05;;
12048;SDS011;6085;49.452;8.502;2023-06-05T12:59:27;2.65;;;2.33;;
12048;SDS011;6085;49.452;8.502;2023-06-05T13:03:30;3.85;;;2.30;;
12048;SDS011;6085;49.452;8.502;2023-06-05T13:07:33;3.03;;;2.40;;
12048;SDS011;6085;49.452;8.502;2023-06-05T13:11:36;2.50;;;2.30;;
12048;SDS011;6085;49.452;8.502;2023-06-05T13:15:38;3.00;;;2.20;;
12048;SDS011;6085;49.452;8.502;2023-06-05T13:19:41;2.83;;;2.40;;
12048;SDS011;6085;49.452;8.502;2023-06-05T13:23:43;4.13;;;2.40;;
12048;SDS011;6085;49.452;8.502;2023-06-05T13:27:45;2.35;;;2.15;;
12048;SDS011;6085;49.452;8.502;2023-06-05T13:31:47;2.25;;;2.15;;
12048;SDS011;6085;49.452;8.502;2023-06-05T13:35:50;3.08;;;2.10;;
12048;SDS011;6085;49.452;8.502;2023-06-05T13:39:52;2.33;;;2.13;;
12048;SDS011;6085;49.452;8.502;2023-06-05T13:43:54;2.55;;;2.22;;
12048;SDS011;6085;49.452;8.502;2023-06-05T13:47:58;2.20;;;2.00;;
12048;SDS011;6085;49.452;8.502;2023-06-05T13:52:01;2.10;;;2.00;;
12048;SDS011;6085;49.452;8.502;2023-06-05T13:56:03;4.10;;;2.17;;
12048;SDS011;6085;49.452;8.502;2023-06-05T14:00:06;2.20;;;2.00;;
12048;SDS011;6085;49.452;8.502;2023-06-05T14:04:09;2.50;;;2.10;;
12048;SDS011;6085;49.452;8.502;2023-06-05T14:08:13;2.03;;;1.80;;
12048;SDS011;6085;49.452;8.502;2023-06-05T14:12:15;3.53;;;2.15;;
12048;SDS011;6085;49.452;8.502;2023-06-05T14:16:17;2.08;;;1.90;;
12048;SDS011;6085;49.452;8.502;2023-06-05T14:20:20;2.35;;;1.90;;
12048;SDS011;6085;49.452;8.502;2023-06-05T14:24:24;2.35;;;1.92;;
12048;SDS011;6085;49.452;8.502;2023-06-05T14:28:26;2.75;;;2.00;;
12048;SDS011;6085;49.452;8.502;2023-06-05T14:32:28;2.03;;;1.80;;
12048;SDS011;6085;49.452;8.502;2023-06-05T14:36:33;2.28;;;1.75;;
12048;SDS011;6085;49.452;8.502;2023-06-05T14:40:37;1.92;;;1.80;;
12048;SDS011;6085;49.452;8.502;2023-06-05T14:44:39;2.25;;;2.10;;
12048;SDS011;6085;49.452;8.502;2023-06-05T14:48:41;2.33;;;1.90;;
12048;SDS011;6085;49.452;8.502;2023-06-05T14:52:45;2.10;;;2.00;;
12048;SDS011;6085;49.452;8.502;2023-06-05T14:56:50;4.72;;;1.90;;
12048;SDS011;6085;49.452;8.502;2023-06-05T15:00:52;3.00;;;1.95;;
12048;SDS011;6085;49.452;8.502;2023-06-05T15:04:54;2.20;;;2.00;;
12048;SDS011;6085;49.452;8.502;2023-06-05T15:08:58;2.40;;;2.20;;
12048;SDS011;6085;49.452;8.502;2023-06-05T15:13:02;2.08;;;1.98;;
12048;SDS011;6085;49.452;8.502;2023-06-05T15:17:04;1.75;;;1.65;;
12048;SDS011;6085;49.452;8.502;2023-06-05T15:21:06;1.92;;;1.77;;
12048;SDS011;6085;49.452;8.502;2023-06-05T15:25:09;1.80;;;1.70;;
12048;SDS011;6085;49.452;8.502;2023-06-05T15:29:12;2.17;;;1.98;;
12048;SDS011;6085;49.452;8.502;2023-06-05T15:33:17;2.08;;;1.98;;
12048;SDS011;6085;49.452;8.502;2023-06-05T15:37:19;2.95;;;2.00;;
12048;SDS011;6085;49.452;8.502;2023-06-05T15:41:21;2.83;;;1.98;;
12048;SDS011;6085;49.452;8.502;2023-06-05T15:45:24;2.80;;;2.15;;
12048;SDS011;6085;49.452;8.502;2023-06-05T15:49:28;2.25;;;2.13;;
12048;SDS011;6085;49.452;8.502;2023-06-05T15:53:29;2.28;;;2.13;;
12048;SDS011;6085;49.452;8.502;2023-06-05T15:57:31;2.08;;;1.90;;
12048;SDS011;6085;49.452;8.502;2023-06-05T16:01:35;3.10;;;2.30;;
12048;SDS011;6085;49.452;8.502;2023-06-05T16:05:37;2.60;;;2.40;;
12048;SDS011;6085;49.452;8.502;2023-06-05T16:09:40;1.90;;;1.80;;
12048;SDS011;6085;49.452;8.502;2023-06-05T16:13:42;3.28;;;2.30;;
12048;SDS011;6085;49.452;8.502;2023-06-05T16:17:45;2.10;;;2.00;;
12048;SDS011;6085;49.452;8.502;2023-06-05T16:21:49;3.08;;;2.00;;
12048;SDS011;6085;49.452;8.502;2023-06-05T16:25:51;2.30;;;1.90;;
12048;SDS011;6085;49.452;8.502;2023-06-05T16:29:53;2.22;;;2.03;;
12048;SDS011;6085;49.452;8.502;2023-06-05T16:33:57;2.40;;;2.00;;
12048;SDS011;6085;49.452;8.502;2023-06-05T16:38:02;2.10;;;1.90;;
12048;SDS011;6085;49.452;8.502;2023-06-05T16:42:05;2.28;;;2.08;;
12048;SDS011;6085;49.452;8.502;2023-06-05T16:46:08;3.35;;;1.90;;
12048;SDS011;6085;49.452;8.502;2023-06-05T16:50:11;2.15;;;1.95;;
12048;SDS011;6085;49.452;8.502;2023-06-05T16:54:13;2.40;;;2.20;;
12048;SDS011;6085;49.452;8.502;2023-06-05T16:58:15;2.10;;;2.00;;
12048;SDS011;6085;49.452;8.502;2023-06-05T17:02:18;4.20;;;1.90;;
12048;SDS011;6085;49.452;8.502;2023-06-05T17:06:21;2.28;;;2.08;;
12048;SDS011;6085;49.452;8.502;2023-06-05T17:10:23;1.90;;;1.80;;
12048;SDS011;6085;49.452;8.502;2023-06-05T17:14:25;2.00;;;1.90;;
12048;SDS011;6085;49.452;8.502;2023-06-05T17:18:27;2.08;;;1.95;;
12048;SDS011;6085;49.452;8.502;2023-06-05T17:22:31;2.97;;;2.30;;
12048;SDS011;6085;49.452;8.502;2023-06-05T17:26:33;2.13;;;1.85;;
12048;SDS011;6085;49.452;8.502;2023-06-05T17:30:35;2.78;;;1.92;;
12048;SDS011;6085;49.452;8.502;2023-06-05T17:34:37;5.15;;;2.20;;
12048;SDS011;6085;49.452;8.502;2023-06-05T17:38:41;1.95;;;1.75;;
12048;SDS011;6085;49.452;8.502;2023-06-05T17:42:42;2.13;;;2.00;;
12048;SDS011;6085;49.452;8.502;2023-06-05T17:46:45;2.45;;;1.90;;
12048;SDS011;6085;49.452;8.502;2023-06-05T17:50:47;2.03;;;1.92;;
12048;SDS011;6085;49.452;8.502;2023-06-05T17:54:50;2.13;;;1.90;;
12048;SDS011;6085;49.452;8.502;2023-06-05T17:58:52;2.00;;;1.80;;
12048;SDS011;6085;49.452;8.502;2023-06-05T18:02:54;2.10;;;1.95;;
12048;SDS011;6085;49.452;8.502;2023-06-05T18:06:56;2.05;;;1.90;;
12048;SDS011;6085;49.452;8.502;2023-06-05T18:10:59;2.35;;;1.90;;
12048;SDS011;6085;49.452;8.502;2023-06-05T18:15:01;3.03;;;1.90;;
12048;SDS011;6085;49.452;8.502;2023-06-05T18:19:04;2.78;;;2.30;;
12048;SDS011;6085;49.452;8.502;2023-06-05T18:23:05;2.55;;;2.00;;
12048;SDS011;6085;49.452;8.502;2023-06-05T18:27:09;2.25;;;1.85;;
12048;SDS011;6085;49.452;8.502;2023-06-05T18:31:11;1.92;;;1.83;;
12048;SDS011;6085;49.452;8.502;2023-06-05T18:35:15;2.63;;;2.10;;
12048;SDS011;6085;49.452;8.502;2023-06-05T18:39:17;2.08;;;1.83;;
12048;SDS011;6085;49.452;8.502;2023-06-05T18:43:21;2.40;;;2.20;;
12048;SDS011;6085;49.452;8.502;2023-06-05T18:47:23;3.58;;;1.80;;
12048;SDS011;6085;49.452;8.502;2023-06-05T18:51:25;2.70;;;2.10;;
12048;SDS011;6085;49.452;8.502;2023-06-05T18:55:26;2.13;;;1.80;;
12048;SDS011;6085;49.452;8.502;2023-06-05T18:59:30;3.28;;;1.98;;
12048;SDS011;6085;49.452;8.502;2023-06-05T19:03:32;2.17;;;1.98;;
12048;SDS011;6085;49.452;8.502;2023-06-05T19:07:33;3.38;;;1.80;;
12048;SDS011;6085;49.452;8.502;2023-06-05T19:11:36;2.92;;;2.10;;
12048;SDS011;6085;49.452;8.502;2023-06-05T19:15:44;3.53;;;2.10;;
12048;SDS011;6085;49.452;8.502;2023-06-05T19:19:47;2.20;;;2.03;;
12048;SDS011;6085;49.452;8.502;2023-06-05T19:23:49;2.13;;;1.92;;
12048;SDS011;6085;49.452;8.502;2023-06-05T19:27:51;2.90;;;2.20;;
12048;SDS011;6085;49.452;8.502;2023-06-05T19:31:54;5.25;;;2.20;;
12048;SDS011;6085;49.452;8.502;2023-06-05T19:35:56;2.28;;;1.92;;
12048;SDS011;6085;49.452;8.502;2023-06-05T19:39:59;2.17;;;1.83;;
12048;SDS011;6085;49.452;8.502;2023-06-05T19:44:03;3.22;;;2.20;;
12048;SDS011;6085;49.452;8.502;2023-06-05T19:48:06;2.10;;;1.83;;
12048;SDS011;6085;49.452;8.502;2023-06-05T19:52:08;2.25;;;2.05;;
12048;SDS011;6085;49.452;8.502;2023-06-05T19:56:10;2.45;;;2.15;;
12048;SDS011;6085;49.452;8.502;2023-06-05T20:00:16;4.75;;;2.40;;
12048;SDS011;6085;49.452;8.502;2023-06-05T20:04:20;3.63;;;1.95;;
12048;SDS011;6085;49.452;8.502;2023-06-05T20:08:22;2.97;;;2.08;;
12048;SDS011;6085;49.452;8.502;2023-06-05T20:12:24;2.80;;;2.20;;
12048;SDS011;6085;49.452;8.502;2023-06-05T20:16:26;2.70;;;2.13;;
12048;SDS011;6085;49.452;8.502;2023-06-05T20:20:30;2.30;;;2.10;;
12048;SDS011;6085;49.452;8.502;2023-06-05T20:24:33;3.05;;;2.03;;
12048;SDS011;6085;49.452;8.502;2023-06-05T20:28:35;3.13;;;2.10;;
12048;SDS011;6085;49.452;8.502;2023-06-05T20:32:37;2.50;;;2.30;;
12048;SDS011;6085;49.452;8.502;2023-06-05T20:36:41;2.40;;;2.17;;
12048;SDS011;6085;49.452;8.502;2023-06-05T20:40:45;2.45;;;1.95;;
12048;SDS011;6085;49.452;8.502;2023-06-05T20:44:49;2.13;;;2.00;;
12048;SDS011;6085;49.452;8.502;2023-06-05T20:48:56;2.22;;;2.00;;
12048;SDS011;6085;49.452;8.502;2023-06-05T20:53:02;1.90;;;1.80;;
12048;SDS011;6085;49.452;8.502;2023-06-05T20:57:08;2.72;;;2.50;;
12048;SDS011;6085;49.452;8.502;2023-06-05T21:01:11;2.53;;;2.40;;
12048;SDS011;6085;49.452;8.502;2023-06-05T21:05:13;3.22;;;2.13;;
12048;SDS011;6085;49.452;8.502;2023-06-05T21:09:16;3.00;;;2.03;;
12048;SDS011;6085;49.452;8.502;2023-06-05T21:13:19;3.10;;;2.17;;
12048;SDS011;6085;49.452;8.502;2023-06-05T21:17:21;2.88;;;2.20;;
12048;SDS011;6085;49.452;8.502;2023-06-05T21:21:23;4.53;;;2.13;;
12048;SDS011;6085;49.452;8.502;2023-06-05T21:25:26;2.50;;;2.05;;
12048;SDS011;6085;49.452;8.502;2023-06-05T21:29:28;3.47;;;2.20;;
12048;SDS011;6085;49.452;8.502;2023-06-05T21:33:31;3.58;;;2.42;;
12048;SDS011;6085;49.452;8.502;2023-06-05T21:37:34;2.40;;;2.20;;
12048;SDS011;6085;49.452;8.502;2023-06-05T21:41:37;2.53;;;2.17;;
12048;SDS011;6085;49.452;8.502;2023-06-05T21:45:39;3.17;;;2.00;;
12048;SDS011;6085;49.452;8.502;2023-06-05T21:49:41;3.08;;;2.10;;
12048;SDS011;6085;49.452;8.502;2023-06-05T21:53:43;2.10;;;2.00;;
12048;SDS011;6085;49.452;8.502;2023-06-05T21:57:47;2.28;;;2.03;;
12048;SDS011;6085;49.452;8.502;2023-06-05T22:01:49;2.55;;;2.30;;
12048;SDS011;6085;49.452;8.502;2023-06-05T22:05:51;2.13;;;1.92;;
12048;SDS011;6085;49.452;8.502;2023-06-05T22:09:57;3.28;;;2.25;;
12048;SDS011;6085;49.452;8.502;2023-06-05T22:14:01;2.42;;;2.22;;
12048;SDS011;6085;49.452;8.502;2023-06-05T22:18:03;3.50;;;2.13;;
12048;SDS011;6085;49.452;8.502;2023-06-05T22:22:05;2.72;;;2.42;;
12048;SDS011;6085;49.452;8.502;2023-06-05T22:26:07;2.65;;;2.30;;
12048;SDS011;6085;49.452;8.502;2023-06-05T22:30:11;3.67;;;2.60;;
12048;SDS011;6085;49.452;8.502;2023-06-05T22:34:13;2.40;;;2.20;;
12048;SDS011;6085;49.452;8.502;2023-06-05T22:38:15;3.60;;;2.38;;
12048;SDS011;6085;49.452;8.502;2023-06-05T22:42:16;3.28;;;2.50;;
12048;SDS011;6085;49.452;8.502;2023-06-05T22:46:20;3.63;;;2.58;;
12048;SDS011;6085;49.452;8.502;2023-06-05T22:50:22;3.38;;;2.50;;
12048;SDS011;6085;49.452;8.502;2023-06-05T22:54:24;3.30;;;2.88;;
12048;SDS011;6085;49.452;8.502;2023-06-05T22:58:26;2.40;;;2.20;;
12048;SDS011;6085;49.452;8.502;2023-06-05T23:02:29;2.95;;;2.47;;
12048;SDS011;6085;49.452;8.502;2023-06-05T23:06:31;3.25;;;2.90;;
12048;SDS011;6085;49.452;8.502;2023-06-05T23:10:33;3.85;;;2.50;;
12048;SDS011;6085;49.452;8.502;2023-06-05T23:14:34;2.75;;;2.53;;
12048;SDS011;6085;49.452;8.502;2023-06-05T23:18:40;3.55;;;2.65;;
12048;SDS011;6085;49.452;8.502;2023-06-05T23:22:42;2.92;;;2.70;;
12048;SDS011;6085;49.452;8.502;2023-06-05T23:26:43;3.10;;;2.55;;
12048;SDS011;6085;49.452;8.502;2023-06-05T23:30:45;2.58;;;2.40;;
12048;SDS011;6085;49.452;8.502;2023-06-05T23:34:49;3.00;;;2.67;;
12048;SDS011;6085;49.452;8.502;2023-06-05T23:38:51;2.88;;;2.58;;
12048;SDS011;6085;49.452;8.502;2023-06-05T23:42:53;2.80;;;2.60;;
12048;SDS011;6085;49.452;8.502;2023-06-05T23:46:58;3.08;;;2.25;;
12048;SDS011;6085;49.452;8.502;2023-06-05T23:51:02;3.00;;;2.42;;
12048;SDS011;6085;49.452;8.502;2023-06-05T23:55:04;2.50;;;2.30;;
12048;SDS011;6085;49.452;8.502;2023-06-05T23:59:06;2.45;;;2.25;;
